Charleston Air Force Base, SC (29404)

11:19 AM EST on February 07, 2016 (GMT -0500)
Sweet grass @ Tanner Plantation | | Change Station
CLOSE
Current Station
Personal Weather Station
Location: Hanahan, SC
Elevation: 46 ft
Nearby Weather Stations
Active Advisory: Wind Advisory

Elev 46 ft 32.94 °N, 80.01 °W | Updated 4 minutes ago

Light Rain
Light Rain
39.0 °F
Feels Like 39 °F
N
2.7
Wind Variable Wind from North

Today
High -- | Low -- °F
--% Chance of Precip.
Yesterday
High -- | Low -- °F
Precip. -- in
Pressure 29.97 in
Visibility 10.0 miles
Clouds Few 900 ft
Mostly Cloudy 1800 ft
Overcast 5000 ft
Windchill 39 °F
Dew Point 39 °F
Humidity 99%
Rainfall 0.88 in
Snow Depth Not available.
7:11 AM 5:57 PM
Waning Crescent, 1% visible
METAR KCHS 071556Z 34019G24KT 10SM -RA FEW009 BKN018 OVC050 04/02 A2996 RMK AO2 SLP147 P0000 T00440017
Pressure 29.97 in
Visibility 10.0 miles
Clouds Few 900 ft
Mostly Cloudy 1800 ft
Overcast 5000 ft
Windchill 39 °F
Dew Point 39 °F
Humidity 99%
Rainfall 0.88 in
Snow Depth Not available.
7:11 AM 5:57 PM
Waning Crescent, 1% visible
METAR KCHS 071556Z 34019G24KT 10SM -RA FEW009 BKN018 OVC050 04/02 A2996 RMK AO2 SLP147 P0000 T00440017

10-Day Weather Forecast

Almanac

Astronomy

Feb. 07, 2016 Rise Set
Actual Time
Civil Twilight
Nautical Twilight
Astronomical Twilight
Moon
Length of Visible Light
Length of Day
Tomorrow will be .
, % of the Moon is Illuminated

Today's Extremes

State Highs State Lows

Community

WunderPhotos

Upload Photos

1,891,221 photos uploaded!

WunderBlog® & News

Nearby

Air Quality

  Air Quality AQ Index Pollutant
Not available.

Snow Depth

Station Depth Elevation

Earthquake Activity

City Distance Mag. Time & Date
Minimum magnitude displayed is 2.5.

Coastal Water Temperatures

Place Temperature

Stations

Nearby Weather Stations

Station Location Temp. Windchill Dew Point Humidity Wind Precip. Elev Updated Type
                   

Watches & Warnings

Wind Advisory
Issued: 9:47 AM EST Feb. 7, 2016 – National Weather Service

... Wind Advisory remains in effect until 7 PM EST this evening...

* locations... Charleston County... especially along and east of
Route 17.

* Winds... northwest to north 20 to 30 mph with gusts up to 40
mph.

* Impacts... strong winds will make travel difficult... especially
for high profile vehicles and on elevated surfaces such as
bridges and overpasses. Due to the saturated grounds from
recent heavy rains some weaker trees could be blown down... as
could some tree branches. Isolated power outages are possible
from these strong winds.

Precautionary/preparedness actions...

Be prepared for strong winds. Extra caution should be taken while
driving high profile vehicles and on bridges and overpasses.
Light weight objects such as trash cans and lawn furniture should
be secured.